Time;durP1;ratioP1;P1;durP2;ratioP2;P2;SDS_P1;SDS_P2;PMS_P1;PMS_P2;Temp;Humidity;BMP_temperature;BMP_pressure;BME280_temperature;BME280_humidity;BME280_pressure;Samples;Min_cycle;Max_cycle;Signal;HPM_P1;HPM_P2
2023/09/04 00:01:47;;;;;;;12.05;8.40;;;14.00;99.90;;;;;;4973988;28;20023;-79
2023/09/04 00:04:12;;;;;;;15.85;9.13;;;14.00;99.90;;;;;;4971051;28;20037;-78
2023/09/04 00:06:38;;;;;;;10.52;7.85;;;13.90;99.90;;;;;;4970045;28;20034;-79
2023/09/04 00:09:04;;;;;;;10.30;8.10;;;13.90;99.90;;;;;;4971352;28;20062;-80
2023/09/04 00:11:29;;;;;;;13.50;9.45;;;13.70;99.90;;;;;;4957302;28;20031;-79
2023/09/04 00:13:55;;;;;;;10.38;7.90;;;13.60;99.90;;;;;;4969652;28;20046;-79
2023/09/04 00:16:20;;;;;;;10.30;8.65;;;13.60;99.90;;;;;;4972316;28;20406;-79
2023/09/04 00:18:46;;;;;;;10.75;8.65;;;13.50;99.90;;;;;;4970439;28;20410;-79
2023/09/04 00:21:12;;;;;;;10.35;9.25;;;13.50;99.90;;;;;;4972691;28;20035;-79
2023/09/04 00:23:38;;;;;;;9.95;8.63;;;13.60;99.90;;;;;;4970977;28;20043;-80
2023/09/04 00:26:03;;;;;;;9.82;8.32;;;13.70;99.90;;;;;;4954910;28;20031;-79
2023/09/04 00:28:29;;;;;;;16.58;9.02;;;13.50;99.90;;;;;;4974164;28;20050;-79
2023/09/04 00:30:56;;;;;;;10.13;7.95;;;13.50;99.90;;;;;;4969759;28;20031;-80
2023/09/04 00:33:22;;;;;;;14.13;7.70;;;13.60;99.90;;;;;;4971166;28;20030;-79
2023/09/04 00:35:47;;;;;;;10.43;7.45;;;13.70;99.90;;;;;;4959262;28;20372;-79
2023/09/04 00:38:13;;;;;;;8.95;8.02;;;13.60;99.90;;;;;;4972211;28;20055;-79
2023/09/04 00:40:38;;;;;;;10.05;7.88;;;13.50;99.90;;;;;;4952431;28;20023;-79
2023/09/04 00:43:04;;;;;;;11.90;8.60;;;13.60;99.90;;;;;;4985952;28;20033;-79
2023/09/04 00:45:29;;;;;;;14.80;9.05;;;13.60;99.90;;;;;;4971703;28;20030;-79
2023/09/04 00:47:55;;;;;;;11.85;8.75;;;13.60;99.90;;;;;;4972178;28;20046;-79
2023/09/04 00:50:23;;;;;;;10.65;8.88;;;13.60;99.90;;;;;;4971323;28;20027;-80
2023/09/04 00:52:53;;;;;;;9.23;8.18;;;13.50;99.90;;;;;;4969165;28;20498;-79
2023/09/04 00:55:18;;;;;;;9.48;7.95;;;13.20;99.90;;;;;;4951752;28;20034;-78
2023/09/04 00:57:44;;;;;;;12.98;7.97;;;13.10;99.90;;;;;;4969043;28;20039;-79
2023/09/04 01:00:13;;;;;;;11.25;9.13;;;13.10;99.90;;;;;;4970328;28;20039;-79
2023/09/04 01:02:39;;;;;;;9.48;7.95;;;13.20;99.90;;;;;;4953007;28;20723;-79
2023/09/04 01:05:05;;;;;;;11.40;7.75;;;13.00;99.90;;;;;;4969241;28;20061;-79
2023/09/04 01:07:31;;;;;;;9.90;7.55;;;13.00;99.90;;;;;;4955806;28;20038;-79
2023/09/04 01:09:57;;;;;;;11.25;7.47;;;13.00;99.90;;;;;;4953841;28;20049;-79
2023/09/04 01:12:29;;;;;;;10.40;8.55;;;13.00;99.90;;;;;;4971033;28;20427;-79
2023/09/04 01:14:55;;;;;;;11.10;8.43;;;13.00;99.90;;;;;;4973983;28;20038;-79
2023/09/04 01:17:21;;;;;;;12.18;7.82;;;13.10;99.90;;;;;;4973291;28;20030;-78
2023/09/04 01:19:47;;;;;;;9.85;7.75;;;13.00;99.90;;;;;;4953028;28;20545;-79
2023/09/04 01:22:12;;;;;;;13.48;8.48;;;13.00;99.90;;;;;;4967615;28;20178;-79
2023/09/04 01:24:39;;;;;;;9.32;7.63;;;12.90;99.90;;;;;;4953555;28;20038;-78
2023/09/04 01:27:21;;;;;;;10.48;7.63;;;12.90;99.90;;;;;;4967908;28;20030;-80
2023/09/04 01:29:50;;;;;;;10.00;7.75;;;12.90;99.90;;;;;;4956160;28;20041;-79
2023/09/04 01:32:27;;;;;;;15.57;8.15;;;12.90;99.90;;;;;;4971736;28;20449;-79
2023/09/04 01:34:53;;;;;;;12.10;9.75;;;13.00;99.90;;;;;;4973270;28;20026;-79
2023/09/04 01:37:18;;;;;;;13.40;8.38;;;13.00;99.90;;;;;;4970290;28;20045;-79
2023/09/04 01:39:44;;;;;;;9.82;7.90;;;13.00;99.90;;;;;;4970141;28;20034;-79
2023/09/04 01:42:09;;;;;;;9.65;8.50;;;12.90;99.90;;;;;;4949301;28;20034;-79
2023/09/04 01:44:35;;;;;;;10.10;7.93;;;12.90;99.90;;;;;;4971742;28;21442;-79
2023/09/04 01:47:01;;;;;;;10.77;8.52;;;12.80;99.90;;;;;;4948514;28;20446;-79
2023/09/04 01:49:26;;;;;;;14.60;7.88;;;12.80;99.90;;;;;;4965265;28;20026;-79
2023/09/04 01:51:53;;;;;;;10.02;8.27;;;12.70;99.90;;;;;;4971695;28;20046;-79
2023/09/04 01:54:19;;;;;;;9.02;7.75;;;12.80;99.90;;;;;;4967450;28;20045;-79
2023/09/04 01:56:44;;;;;;;8.95;8.05;;;12.80;99.90;;;;;;4952041;28;20771;-78
2023/09/04 01:59:10;;;;;;;10.75;8.25;;;12.80;99.90;;;;;;4970575;28;20051;-79
2023/09/04 02:01:35;;;;;;;14.38;8.35;;;12.80;99.90;;;;;;4969737;28;20035;-79
2023/09/04 02:04:01;;;;;;;10.23;7.93;;;12.90;99.90;;;;;;4970738;28;20085;-79
2023/09/04 02:06:28;;;;;;;8.93;8.02;;;12.90;99.90;;;;;;4968972;28;20031;-79
2023/09/04 02:08:53;;;;;;;11.18;8.30;;;12.90;99.90;;;;;;4967610;28;20089;-79
2023/09/04 02:11:19;;;;;;;9.20;8.30;;;12.80;99.90;;;;;;4970290;28;20562;-79
2023/09/04 02:13:47;;;;;;;9.30;7.45;;;12.60;99.90;;;;;;4965253;28;20105;-78
2023/09/04 02:16:13;;;;;;;12.20;7.78;;;12.60;99.90;;;;;;4983818;28;20054;-78
2023/09/04 02:18:39;;;;;;;15.15;8.43;;;12.50;99.90;;;;;;4969477;28;20406;-79
2023/09/04 02:21:05;;;;;;;9.65;8.60;;;12.60;99.90;;;;;;4971151;28;20442;-79
2023/09/04 02:23:31;;;;;;;12.77;8.52;;;12.50;99.90;;;;;;4968622;28;20526;-80
2023/09/04 02:25:56;;;;;;;8.32;7.35;;;12.50;99.90;;;;;;4968029;28;20035;-79
2023/09/04 02:28:22;;;;;;;11.52;8.23;;;12.40;99.90;;;;;;4955279;28;20463;-78
2023/09/04 02:30:47;;;;;;;11.27;8.65;;;12.40;99.90;;;;;;4968181;28;20031;-79
2023/09/04 02:33:13;;;;;;;8.70;7.82;;;12.40;99.90;;;;;;4969917;28;20471;-78
2023/09/04 02:35:38;;;;;;;9.05;7.40;;;12.40;99.90;;;;;;4972458;28;20553;-79
2023/09/04 02:38:04;;;;;;;11.85;8.27;;;12.40;99.90;;;;;;4969765;28;20725;-79
2023/09/04 02:40:29;;;;;;;11.45;9.13;;;12.40;99.90;;;;;;4969540;28;20514;-79
2023/09/04 02:42:55;;;;;;;10.73;8.63;;;12.40;99.90;;;;;;4952669;28;20077;-79
2023/09/04 02:45:20;;;;;;;11.32;7.93;;;12.40;99.90;;;;;;4968878;28;20031;-79
2023/09/04 02:47:46;;;;;;;8.60;7.32;;;12.40;99.90;;;;;;4985549;28;20041;-78
2023/09/04 02:50:12;;;;;;;10.88;8.23;;;12.30;99.90;;;;;;4976347;28;20081;-79
2023/09/04 02:52:37;;;;;;;12.15;7.30;;;12.30;99.90;;;;;;4972602;28;20132;-79
2023/09/04 02:55:04;;;;;;;8.77;7.50;;;12.30;99.90;;;;;;4957360;28;20042;-79
2023/09/04 02:57:32;;;;;;;7.95;6.13;;;12.30;99.90;;;;;;4962716;28;20146;-79
2023/09/04 02:59:58;;;;;;;15.10;7.93;;;12.40;99.90;;;;;;4972321;28;20035;-80
2023/09/04 03:02:24;;;;;;;10.50;7.13;;;12.40;99.90;;;;;;4969194;28;20306;-80
2023/09/04 03:04:55;;;;;;;11.98;8.30;;;12.40;99.90;;;;;;4989464;28;20121;-79
2023/09/04 03:07:22;;;;;;;10.32;7.38;;;12.30;99.90;;;;;;4972764;28;20030;-80
2023/09/04 03:09:47;;;;;;;8.93;8.02;;;12.20;99.90;;;;;;4981239;28;20038;-80
2023/09/04 03:12:13;;;;;;;8.65;7.35;;;12.20;99.90;;;;;;4969538;28;20093;-79
2023/09/04 03:14:39;;;;;;;10.63;7.82;;;12.10;99.90;;;;;;4972875;28;20089;-78
2023/09/04 03:17:05;;;;;;;10.73;8.20;;;11.90;99.90;;;;;;4970658;28;20030;-80
2023/09/04 03:19:30;;;;;;;10.88;8.95;;;12.00;99.90;;;;;;4971153;28;20035;-80
2023/09/04 03:21:57;;;;;;;10.50;7.40;;;12.10;99.90;;;;;;4974010;28;20409;-79
2023/09/04 03:24:23;;;;;;;11.25;7.90;;;12.00;99.90;;;;;;4975329;28;20496;-80
2023/09/04 03:26:49;;;;;;;10.45;8.35;;;11.90;99.90;;;;;;4969268;28;20577;-79
2023/09/04 03:29:15;;;;;;;10.18;8.23;;;12.00;99.90;;;;;;4974053;28;20035;-80
2023/09/04 03:31:41;;;;;;;10.50;7.45;;;11.90;99.90;;;;;;4974227;28;20034;-80
2023/09/04 03:34:07;;;;;;;10.63;7.68;;;11.80;99.90;;;;;;4973847;28;20030;-80
2023/09/04 03:36:32;;;;;;;8.88;7.45;;;11.90;99.90;;;;;;4970580;28;20031;-80
2023/09/04 03:38:58;;;;;;;13.82;8.68;;;12.00;99.90;;;;;;4970304;28;20035;-80
2023/09/04 03:41:24;;;;;;;15.88;8.85;;;11.90;99.90;;;;;;4952833;28;20042;-80
2023/09/04 03:43:50;;;;;;;14.23;8.55;;;11.90;99.90;;;;;;4971551;28;20035;-80
2023/09/04 03:46:15;;;;;;;10.70;8.75;;;11.90;99.90;;;;;;4958659;28;20450;-79
2023/09/04 03:48:41;;;;;;;13.82;8.45;;;11.90;99.90;;;;;;4972719;28;20027;-79
2023/09/04 03:51:07;;;;;;;14.20;9.00;;;11.90;99.90;;;;;;4968267;28;20038;-79
2023/09/04 03:53:32;;;;;;;11.88;9.13;;;11.80;99.90;;;;;;4970178;28;20086;-79
2023/09/04 03:56:04;;;;;;;13.65;9.18;;;11.80;99.90;;;;;;4970142;28;20039;-78
2023/09/04 03:58:31;;;;;;;11.82;8.75;;;11.80;99.90;;;;;;4984297;28;20044;-79
2023/09/04 04:01:00;;;;;;;14.32;8.65;;;11.70;99.90;;;;;;4969736;28;20120;-79
2023/09/04 04:03:25;;;;;;;10.85;8.48;;;11.70;99.90;;;;;;4972765;28;20521;-80
2023/09/04 04:05:51;;;;;;;9.43;8.38;;;11.60;99.90;;;;;;4973280;28;20022;-79
2023/09/04 04:08:16;;;;;;;9.70;8.13;;;11.60;99.90;;;;;;4969886;28;20649;-79
2023/09/04 04:10:44;;;;;;;12.25;8.65;;;11.50;99.90;;;;;;4971049;28;20019;-80
2023/09/04 04:13:09;;;;;;;12.18;8.52;;;11.50;99.90;;;;;;4970450;28;20031;-79
2023/09/04 04:15:35;;;;;;;11.23;8.13;;;11.50;99.90;;;;;;4969969;28;20077;-79
2023/09/04 04:18:00;;;;;;;12.18;8.43;;;11.50;99.90;;;;;;4952189;28;20033;-79
2023/09/04 04:20:26;;;;;;;9.27;7.95;;;11.50;99.90;;;;;;4974408;28;20388;-79
2023/09/04 04:22:51;;;;;;;9.82;8.13;;;11.60;99.90;;;;;;4969968;28;20035;-79
2023/09/04 04:25:17;;;;;;;11.38;8.77;;;11.60;99.90;;;;;;4968484;28;20082;-78
2023/09/04 04:27:44;;;;;;;15.48;8.52;;;11.60;99.90;;;;;;4973288;28;20105;-80
2023/09/04 04:30:10;;;;;;;13.07;8.43;;;11.70;99.90;;;;;;4952451;28;20058;-79
2023/09/04 04:32:35;;;;;;;12.35;7.65;;;11.60;99.90;;;;;;4968615;28;20118;-78
2023/09/04 04:35:01;;;;;;;11.32;8.27;;;11.60;99.90;;;;;;4949802;28;20038;-78
2023/09/04 04:37:26;;;;;;;11.45;8.52;;;11.50;99.90;;;;;;4970689;28;20125;-78
2023/09/04 04:39:52;;;;;;;11.68;8.85;;;11.50;99.90;;;;;;4974406;28;20450;-78
2023/09/04 04:42:18;;;;;;;11.55;8.85;;;11.60;99.90;;;;;;4971632;28;20089;-78
2023/09/04 04:44:43;;;;;;;13.88;8.90;;;11.60;99.90;;;;;;4968228;28;20759;-78
2023/09/04 04:47:09;;;;;;;12.48;8.80;;;11.40;99.90;;;;;;4954536;28;20235;-79
2023/09/04 04:49:35;;;;;;;11.40;8.25;;;11.30;99.90;;;;;;4971596;28;20037;-78
2023/09/04 04:52:00;;;;;;;10.15;8.65;;;11.30;99.90;;;;;;4968573;28;20589;-79
2023/09/04 04:54:26;;;;;;;10.95;8.05;;;11.40;99.90;;;;;;4976254;28;20720;-78
2023/09/04 04:56:55;;;;;;;11.68;9.25;;;11.40;99.90;;;;;;4969439;28;20807;-78
2023/09/04 04:59:21;;;;;;;10.45;8.25;;;11.50;99.90;;;;;;4968429;28;20098;-78
2023/09/04 05:01:46;;;;;;;12.75;7.93;;;11.40;99.90;;;;;;4969983;28;20491;-78
2023/09/04 05:04:12;;;;;;;12.50;7.78;;;11.40;99.90;;;;;;4950866;28;20399;-78
2023/09/04 05:06:37;;;;;;;12.70;8.77;;;11.40;99.90;;;;;;4956246;28;20033;-78
2023/09/04 05:09:04;;;;;;;12.63;8.40;;;11.40;99.90;;;;;;4973519;28;20034;-78
2023/09/04 05:11:29;;;;;;;13.27;8.90;;;11.30;99.90;;;;;;4969906;28;20046;-77
2023/09/04 05:13:55;;;;;;;14.50;9.25;;;11.40;99.90;;;;;;4969978;28;20034;-78
2023/09/04 05:16:20;;;;;;;16.92;9.23;;;11.50;99.90;;;;;;4965600;28;20057;-77
2023/09/04 05:18:46;;;;;;;13.48;8.93;;;11.50;99.90;;;;;;4951120;28;20093;-78
2023/09/04 05:21:12;;;;;;;13.15;9.00;;;11.50;99.90;;;;;;4966951;28;20057;-78
2023/09/04 05:23:37;;;;;;;15.85;10.15;;;11.60;99.90;;;;;;4971746;28;20482;-78
2023/09/04 05:26:03;;;;;;;10.00;8.60;;;11.60;99.90;;;;;;4968493;28;21224;-78
2023/09/04 05:28:29;;;;;;;14.43;10.60;;;11.60;99.90;;;;;;4969554;28;20031;-78
2023/09/04 05:31:00;;;;;;;18.45;10.10;;;11.60;99.90;;;;;;4967969;28;20399;-78
2023/09/04 05:33:26;;;;;;;8.60;7.60;;;11.70;99.90;;;;;;4970123;28;20256;-78
2023/09/04 05:35:57;;;;;;;13.20;9.82;;;11.70;99.90;;;;;;4966863;28;20034;-78
2023/09/04 05:38:23;;;;;;;15.15;11.02;;;11.80;99.90;;;;;;4965396;28;20170;-79
2023/09/04 05:40:49;;;;;;;13.40;10.55;;;11.80;99.90;;;;;;4952054;28;20146;-80
2023/09/04 05:43:15;;;;;;;17.30;11.43;;;11.90;99.90;;;;;;4967881;28;20536;-80
2023/09/04 05:45:41;;;;;;;17.45;12.13;;;12.00;99.90;;;;;;4967669;28;20038;-80
2023/09/04 05:48:06;;;;;;;22.20;13.45;;;12.00;99.90;;;;;;4966194;28;20522;-79
2023/09/04 05:50:32;;;;;;;15.75;12.23;;;12.00;99.90;;;;;;4965460;28;20506;-79
2023/09/04 05:52:57;;;;;;;18.70;12.57;;;12.00;99.90;;;;;;4970437;28;20027;-78
2023/09/04 05:55:24;;;;;;;16.85;11.68;;;12.10;99.90;;;;;;4969882;28;20023;-77
2023/09/04 05:57:49;;;;;;;15.57;11.75;;;12.20;99.90;;;;;;4966862;28;20527;-77
2023/09/04 06:00:15;;;;;;;17.80;12.15;;;12.20;99.90;;;;;;4968453;28;20045;-78
2023/09/04 06:02:41;;;;;;;18.35;12.23;;;12.30;99.90;;;;;;4970040;28;20034;-79
2023/09/04 06:05:07;;;;;;;16.13;11.68;;;12.30;99.90;;;;;;4967993;28;20107;-76
2023/09/04 06:07:34;;;;;;;17.70;12.90;;;12.40;99.90;;;;;;4972108;28;20406;-77
2023/09/04 06:09:59;;;;;;;19.15;11.73;;;12.40;99.90;;;;;;4971258;28;20038;-78
2023/09/04 06:12:25;;;;;;;17.67;12.32;;;12.50;99.90;;;;;;4967156;28;20023;-78
2023/09/04 06:14:50;;;;;;;21.48;13.07;;;12.50;99.90;;;;;;4949486;28;20110;-78
2023/09/04 06:17:16;;;;;;;22.45;13.18;;;12.60;99.90;;;;;;4973336;28;20038;-78
2023/09/04 06:19:41;;;;;;;18.77;13.40;;;12.60;99.90;;;;;;4971018;28;20046;-77
2023/09/04 06:22:07;;;;;;;17.35;13.10;;;12.70;99.90;;;;;;4972257;28;20042;-77
2023/09/04 06:24:32;;;;;;;18.98;13.00;;;12.70;99.90;;;;;;4974638;28;20106;-79
2023/09/04 06:26:58;;;;;;;16.50;13.07;;;12.80;99.90;;;;;;4972610;28;20039;-77
2023/09/04 06:29:23;;;;;;;18.98;13.00;;;13.00;99.90;;;;;;4965435;28;20031;-77
2023/09/04 06:31:49;;;;;;;21.30;13.70;;;13.20;99.90;;;;;;4973026;28;20030;-78
2023/09/04 06:34:15;;;;;;;19.30;13.88;;;13.20;99.90;;;;;;4956897;28;20453;-77
2023/09/04 06:36:41;;;;;;;20.02;13.45;;;13.30;99.90;;;;;;4967814;28;20116;-77
2023/09/04 06:39:06;;;;;;;17.80;13.50;;;13.40;99.90;;;;;;4972073;28;20490;-77
2023/09/04 06:41:32;;;;;;;19.92;13.30;;;13.40;99.90;;;;;;4977428;28;20034;-78
2023/09/04 06:43:58;;;;;;;19.23;14.13;;;13.60;99.90;;;;;;4969189;28;20037;-79
2023/09/04 06:46:24;;;;;;;17.27;12.38;;;13.70;99.90;;;;;;4988595;28;20465;-77
2023/09/04 06:48:49;;;;;;;19.85;12.98;;;13.70;99.90;;;;;;4971840;28;20406;-77
2023/09/04 06:51:18;;;;;;;18.40;13.77;;;13.80;99.90;;;;;;4976685;28;20039;-78
2023/09/04 06:53:43;;;;;;;17.52;12.80;;;13.90;99.90;;;;;;4968866;28;20030;-77
2023/09/04 06:56:09;;;;;;;17.60;12.65;;;13.90;99.90;;;;;;4969709;28;20502;-77
2023/09/04 06:58:35;;;;;;;19.27;13.00;;;14.00;99.90;;;;;;4973181;28;20102;-78
2023/09/04 07:01:04;;;;;;;19.02;13.43;;;14.10;99.90;;;;;;4962517;28;20031;-79
2023/09/04 07:03:29;;;;;;;16.25;13.10;;;14.30;99.90;;;;;;4959751;28;20510;-79
2023/09/04 07:05:55;;;;;;;15.18;12.63;;;14.40;99.90;;;;;;4973337;28;20049;-79
2023/09/04 07:08:21;;;;;;;15.57;12.38;;;14.60;99.90;;;;;;4974252;28;20534;-78
2023/09/04 07:10:47;;;;;;;15.80;11.18;;;14.70;99.90;;;;;;4972181;28;20113;-78
2023/09/04 07:13:13;;;;;;;12.52;10.63;;;14.90;99.90;;;;;;4975481;28;20084;-79
2023/09/04 07:15:40;;;;;;;14.55;9.90;;;15.00;99.90;;;;;;4976254;28;20512;-79
2023/09/04 07:18:06;;;;;;;13.10;9.30;;;15.10;99.90;;;;;;4964230;28;20027;-79
2023/09/04 07:20:32;;;;;;;13.68;9.35;;;15.20;99.90;;;;;;4970279;28;20035;-77
2023/09/04 07:23:00;;;;;;;11.35;8.45;;;15.50;99.90;;;;;;4962868;28;20042;-79
2023/09/04 07:25:25;;;;;;;8.32;7.40;;;15.50;99.90;;;;;;4972731;28;20085;-78
2023/09/04 07:27:52;;;;;;;9.25;7.80;;;15.60;99.90;;;;;;4975818;28;20494;-78
2023/09/04 07:30:17;;;;;;;7.55;5.03;;;15.70;99.90;;;;;;4975581;28;20046;-77
2023/09/04 07:32:43;;;;;;;4.03;3.63;;;15.90;99.90;;;;;;4971289;28;21291;-78
2023/09/04 07:35:09;;;;;;;7.97;6.07;;;16.10;99.90;;;;;;4971407;28;20073;-78
2023/09/04 07:37:37;;;;;;;6.65;6.05;;;16.30;99.90;;;;;;4973231;28;20042;-79
2023/09/04 07:40:08;;;;;;;5.15;4.57;;;16.50;99.90;;;;;;4973838;28;20542;-77
2023/09/04 07:42:33;;;;;;;5.35;4.80;;;16.60;99.90;;;;;;4963004;28;20033;-77
2023/09/04 07:45:00;;;;;;;8.88;4.65;;;16.80;99.90;;;;;;4954598;28;20054;-78
2023/09/04 07:47:26;;;;;;;9.73;5.53;;;16.90;99.90;;;;;;4955954;28;20038;-77
2023/09/04 07:49:52;;;;;;;5.70;3.80;;;17.10;99.90;;;;;;4971551;28;20043;-79
2023/09/04 07:52:18;;;;;;;8.07;5.25;;;17.10;99.90;;;;;;4969643;28;20038;-76
2023/09/04 07:54:44;;;;;;;5.38;4.88;;;17.40;99.90;;;;;;4970261;28;20105;-77
2023/09/04 07:57:10;;;;;;;5.30;4.60;;;17.50;99.90;;;;;;4971077;28;20117;-76
2023/09/04 07:59:36;;;;;;;5.05;4.50;;;17.50;99.90;;;;;;4973201;28;20348;-76
2023/09/04 08:02:03;;;;;;;7.32;3.95;;;17.70;99.90;;;;;;4956061;28;20026;-77
2023/09/04 08:04:29;;;;;;;7.88;5.22;;;17.90;99.90;;;;;;4973058;28;20035;-77
2023/09/04 08:06:58;;;;;;;7.25;5.20;;;18.10;99.90;;;;;;4974579;28;20090;-77
2023/09/04 08:09:23;;;;;;;9.13;5.13;;;18.10;99.90;;;;;;4971308;28;20068;-76
2023/09/04 08:11:49;;;;;;;7.10;4.63;;;18.10;99.90;;;;;;4972924;28;20478;-77
2023/09/04 08:14:15;;;;;;;5.60;4.38;;;18.60;99.90;;;;;;4968575;28;20117;-78
2023/09/04 08:16:41;;;;;;;10.85;3.83;;;18.60;99.90;;;;;;4970193;28;20559;-77
2023/09/04 08:19:06;;;;;;;3.97;3.50;;;18.70;99.90;;;;;;4972615;28;20031;-77
2023/09/04 08:21:32;;;;;;;6.22;3.70;;;18.80;99.90;;;;;;4973076;28;20101;-78
2023/09/04 08:23:58;;;;;;;6.18;3.72;;;19.00;99.90;;;;;;4974503;28;20478;-78
2023/09/04 08:26:23;;;;;;;6.38;3.47;;;19.30;99.90;;;;;;4969912;28;20057;-79
2023/09/04 08:28:49;;;;;;;7.38;3.92;;;19.40;99.90;;;;;;4972110;28;20035;-77
2023/09/04 08:31:15;;;;;;;4.47;3.53;;;19.10;99.90;;;;;;4972671;28;20041;-77
2023/09/04 08:33:40;;;;;;;3.65;2.95;;;19.20;99.90;;;;;;4969135;28;20031;-78
2023/09/04 08:36:06;;;;;;;4.22;3.40;;;19.40;99.90;;;;;;4967201;28;20031;-78
2023/09/04 08:38:31;;;;;;;4.07;2.80;;;19.80;99.90;;;;;;4970729;28;20162;-78
2023/09/04 08:41:00;;;;;;;4.68;3.00;;;20.10;99.90;;;;;;4968068;28;20104;-78
2023/09/04 08:43:28;;;;;;;4.18;2.97;;;20.00;99.90;;;;;;4957829;28;20034;-78
2023/09/04 08:45:54;;;;;;;4.03;2.75;;;20.00;99.90;;;;;;4971235;28;20042;-78
2023/09/04 08:48:20;;;;;;;4.65;3.03;;;20.30;99.90;;;;;;4970127;28;20550;-78
2023/09/04 08:50:46;;;;;;;8.35;2.72;;;20.40;99.90;;;;;;4967940;28;20113;-77
2023/09/04 08:53:12;;;;;;;7.07;2.30;;;20.40;99.90;;;;;;4972102;28;20031;-78
2023/09/04 08:55:38;;;;;;;2.60;2.40;;;20.40;99.90;;;;;;4973175;28;20398;-77
2023/09/04 08:58:03;;;;;;;6.18;2.60;;;20.50;99.90;;;;;;4970402;28;20121;-78
2023/09/04 09:00:29;;;;;;;2.90;2.60;;;20.70;99.90;;;;;;4972796;28;20931;-78
2023/09/04 09:02:57;;;;;;;5.72;2.70;;;21.10;99.90;;;;;;4968715;28;20045;-78
2023/09/04 09:05:22;;;;;;;3.17;2.45;;;21.20;99.90;;;;;;4967314;28;20035;-78
2023/09/04 09:07:48;;;;;;;2.47;1.98;;;21.40;99.90;;;;;;4968679;28;20037;-78
2023/09/04 09:10:16;;;;;;;2.67;2.25;;;21.70;99.90;;;;;;4967997;28;20081;-79
2023/09/04 09:12:42;;;;;;;9.00;2.65;;;21.90;99.90;;;;;;4988286;28;20042;-79
2023/09/04 09:15:09;;;;;;;3.08;2.42;;;22.50;99.90;;;;;;4967047;28;20061;-78
2023/09/04 09:17:35;;;;;;;2.85;2.10;;;22.60;99.90;;;;;;4966586;28;20106;-78
2023/09/04 09:20:00;;;;;;;4.95;2.50;;;22.70;99.90;;;;;;4970241;28;20133;-78
2023/09/04 09:22:26;;;;;;;3.65;2.25;;;23.00;99.90;;;;;;4970119;28;20422;-78
2023/09/04 09:24:52;;;;;;;2.88;1.98;;;22.70;99.90;;;;;;4972033;28;20384;-78
2023/09/04 09:27:20;;;;;;;2.33;1.83;;;22.90;99.90;;;;;;4968948;28;20522;-77
2023/09/04 09:29:46;;;;;;;5.13;2.15;;;23.30;99.90;;;;;;4969959;28;20054;-78
2023/09/04 09:32:12;;;;;;;4.47;2.65;;;23.40;99.90;;;;;;4969109;28;20035;-78
2023/09/04 09:34:39;;;;;;;3.65;2.40;;;23.10;99.90;;;;;;4966891;28;20462;-77
2023/09/04 09:37:06;;;;;;;2.38;1.83;;;22.80;99.90;;;;;;4977458;28;20073;-77
2023/09/04 09:39:33;;;;;;;3.35;2.53;;;23.60;99.90;;;;;;4967232;28;20050;-77
2023/09/04 09:42:01;;;;;;;6.07;2.20;;;23.20;99.90;;;;;;4968640;28;20064;-78
2023/09/04 09:44:31;;;;;;;3.30;2.03;;;23.40;99.90;;;;;;4954375;28;20035;-78
2023/09/04 09:46:57;;;;;;;3.78;1.90;;;23.90;99.90;;;;;;4951845;28;20041;-78
2023/09/04 09:49:22;;;;;;;5.07;2.13;;;23.80;99.90;;;;;;4970549;28;20483;-77
2023/09/04 09:51:52;;;;;;;3.03;2.25;;;23.50;99.90;;;;;;4964239;28;20033;-78
2023/09/04 09:54:27;;;;;;;3.67;1.77;;;24.10;99.90;;;;;;4969513;28;20109;-77
2023/09/04 09:56:52;;;;;;;4.20;2.00;;;23.90;99.90;;;;;;4952821;28;20038;-78
2023/09/04 09:59:18;;;;;;;3.00;2.05;;;24.00;99.90;;;;;;4968635;28;20039;-77
2023/09/04 10:01:44;;;;;;;2.33;1.75;;;23.80;99.90;;;;;;4967611;28;20070;-77
2023/09/04 10:04:10;;;;;;;5.95;1.90;;;24.20;99.90;;;;;;4954158;28;20487;-77
2023/09/04 10:06:35;;;;;;;2.25;1.60;;;24.50;99.90;;;;;;4970405;28;20042;-78
2023/09/04 10:09:01;;;;;;;3.38;2.22;;;24.50;99.90;;;;;;4953585;28;20032;-77
2023/09/04 10:11:26;;;;;;;2.05;1.85;;;25.10;99.90;;;;;;4951533;28;20051;-78
2023/09/04 10:14:00;;;;;;;3.50;2.13;;;25.30;99.90;;;;;;4970611;28;20039;-78
2023/09/04 10:16:36;;;;;;;3.28;2.05;;;24.70;99.90;;;;;;4984330;28;20035;-78
2023/09/04 10:19:02;;;;;;;2.10;1.80;;;24.80;99.90;;;;;;4985015;28;20030;-77
2023/09/04 10:21:32;;;;;;;8.73;1.92;;;24.70;99.90;;;;;;4968655;28;20027;-78
2023/09/04 10:24:00;;;;;;;2.30;1.98;;;24.80;99.90;;;;;;4968944;28;20039;-78
2023/09/04 10:26:46;;;;;;;2.28;1.48;;;24.60;99.90;;;;;;4973222;28;20027;-78
2023/09/04 10:29:18;;;;;;;3.60;2.08;;;25.30;99.90;;;;;;4968913;28;20050;-78
2023/09/04 10:31:44;;;;;;;4.15;1.77;;;25.40;99.90;;;;;;4970095;28;20098;-78
2023/09/04 10:34:09;;;;;;;2.78;1.58;;;25.60;99.90;;;;;;4954044;28;20433;-77
2023/09/04 10:36:35;;;;;;;1.65;1.38;;;25.60;99.70;;;;;;4952037;28;20030;-78
2023/09/04 10:39:03;;;;;;;3.33;2.00;;;25.00;99.30;;;;;;4282912;28;9999799;-79
2023/09/04 10:41:30;;;;;;;2.13;1.70;;;25.40;99.90;;;;;;4961218;28;20114;-79
2023/09/04 10:43:55;;;;;;;3.20;1.80;;;25.00;99.90;;;;;;4965280;28;20085;-79
2023/09/04 10:46:22;;;;;;;1.77;1.63;;;24.70;99.90;;;;;;4964729;28;20039;-79
2023/09/04 10:48:50;;;;;;;2.20;1.98;;;25.60;99.90;;;;;;4965960;28;20029;-79
2023/09/04 10:51:41;;;;;;;1.75;1.48;;;25.70;99.90;;;;;;4962824;28;20141;-79
2023/09/04 10:54:07;;;;;;;2.53;1.60;;;26.10;99.90;;;;;;4966133;28;20042;-80
2023/09/04 10:56:51;;;;;;;2.22;1.73;;;25.70;97.00;;;;;;4961365;28;20044;-81
2023/09/04 10:59:17;;;;;;;4.45;2.05;;;25.70;99.40;;;;;;4966377;28;20570;-80
2023/09/04 11:01:43;;;;;;;2.22;1.88;;;26.00;97.10;;;;;;4953513;28;20027;-81
2023/09/04 11:04:09;;;;;;;2.42;1.80;;;26.80;96.90;;;;;;4968758;28;20045;-81
2023/09/04 11:06:37;;;;;;;4.40;2.22;;;27.50;95.80;;;;;;4956283;28;20446;-80
2023/09/04 11:09:03;;;;;;;3.75;2.17;;;27.70;97.10;;;;;;4970831;28;20080;-81
2023/09/04 11:11:28;;;;;;;2.15;1.73;;;26.90;99.40;;;;;;4968536;28;20035;-82
2023/09/04 11:13:58;;;;;;;2.55;1.95;;;26.90;97.90;;;;;;4970952;28;20402;-82
2023/09/04 11:16:25;;;;;;;3.13;1.98;;;27.10;99.00;;;;;;4972673;28;20035;-82
2023/09/04 11:19:14;;;;;;;2.78;1.73;;;26.90;97.30;;;;;;4971551;28;20543;-82
2023/09/04 11:21:42;;;;;;;2.88;1.85;;;27.10;97.20;;;;;;4973912;28;20029;-82
2023/09/04 11:24:08;;;;;;;2.75;1.73;;;27.10;99.00;;;;;;4974231;28;20106;-82
2023/09/04 11:26:33;;;;;;;3.35;2.67;;;27.40;97.30;;;;;;4955001;28;20109;-83
2023/09/04 11:29:01;;;;;;;2.25;1.90;;;26.60;98.70;;;;;;4970789;28;20497;-83
2023/09/04 11:31:27;;;;;;;2.05;1.60;;;26.70;98.00;;;;;;4975348;28;22636;-83
2023/09/04 11:33:53;;;;;;;2.45;1.77;;;27.90;95.80;;;;;;4972449;28;20073;-81
2023/09/04 11:36:19;;;;;;;4.82;1.88;;;29.30;93.90;;;;;;4969687;28;20034;-82
2023/09/04 11:38:44;;;;;;;2.80;1.52;;;28.20;93.70;;;;;;4973073;28;20443;-81
2023/09/04 11:41:16;;;;;;;5.38;1.85;;;28.70;93.50;;;;;;4956447;28;20394;-82
2023/09/04 11:43:42;;;;;;;2.00;1.45;;;28.50;93.80;;;;;;4959484;28;20058;-83
2023/09/04 11:46:09;;;;;;;4.57;1.67;;;28.00;97.00;;;;;;4973225;28;20115;-85
2023/09/04 11:48:35;;;;;;;2.53;1.52;;;27.90;97.50;;;;;;4934385;28;20035;-82
2023/09/04 11:51:01;;;;;;;4.30;2.00;;;28.00;95.60;;;;;;4975114;28;20405;-82
2023/09/04 11:53:34;;;;;;;3.40;1.90;;;28.00;96.50;;;;;;4970074;28;20505;-83
2023/09/04 11:56:00;;;;;;;3.00;1.75;;;27.80;96.90;;;;;;4984502;28;20093;-83
2023/09/04 11:58:25;;;;;;;3.60;1.98;;;28.00;97.40;;;;;;4973581;28;20030;-83
2023/09/04 12:00:51;;;;;;;1.92;1.73;;;28.70;93.10;;;;;;4974936;28;20035;-84
2023/09/04 12:03:17;;;;;;;2.67;2.35;;;28.50;95.20;;;;;;4969315;28;20435;-84
2023/09/04 12:05:43;;;;;;;5.03;2.00;;;29.00;93.50;;;;;;4969206;28;20031;-84
2023/09/04 12:08:09;;;;;;;2.88;1.95;;;28.70;95.90;;;;;;4950762;28;20057;-83
2023/09/04 12:10:35;;;;;;;5.32;2.17;;;28.90;93.50;;;;;;4988542;28;21067;-82
2023/09/04 12:13:01;;;;;;;2.53;2.10;;;28.80;93.60;;;;;;4983958;28;20034;-85
2023/09/04 12:15:28;;;;;;;2.90;2.10;;;29.40;95.40;;;;;;4970978;28;20046;-85
2023/09/04 12:17:54;;;;;;;3.20;2.05;;;29.20;95.30;;;;;;4985035;28;20109;-84
2023/09/04 12:20:20;;;;;;;5.55;2.25;;;29.10;94.80;;;;;;4970236;28;20066;-85
2023/09/04 12:22:55;;;;;;;2.63;2.30;;;28.40;95.20;;;;;;4973786;28;20042;-85
2023/09/04 12:25:24;;;;;;;;;;;28.00;95.70;;;;;;4973340;28;20458;-83
2023/09/04 12:27:49;;;;;;;2.17;1.92;;;27.90;95.10;;;;;;4974168;28;19914;-83
2023/09/04 12:30:15;;;;;;;3.80;2.55;;;28.10;95.70;;;;;;4973751;28;20462;-84
2023/09/04 12:32:42;;;;;;;3.13;1.80;;;28.50;96.40;;;;;;4973798;28;20479;-84
2023/09/04 12:35:08;;;;;;;1.55;1.45;;;29.20;95.40;;;;;;4970074;28;20122;-83
2023/09/04 12:37:37;;;;;;;3.53;1.95;;;29.30;93.10;;;;;;4970049;28;20045;-83